createdAt,value
2023-03-04T00:01:59.251Z,35.70
2023-03-04T00:04:29.148Z,38.33
2023-03-04T00:06:56.209Z,37.92
2023-03-04T00:09:23.692Z,35.90
2023-03-04T00:11:50.772Z,38.42
2023-03-04T00:14:18.276Z,38.35
2023-03-04T00:16:45.442Z,37.72
2023-03-04T00:19:12.897Z,31.00
2023-03-04T00:21:42.485Z,35.35
2023-03-04T00:24:09.874Z,34.55
2023-03-04T00:26:37.339Z,31.98
2023-03-04T00:29:04.778Z,34.35
2023-03-04T00:31:31.933Z,36.47
2023-03-04T00:33:59.415Z,35.45
2023-03-04T00:36:26.612Z,34.72
2023-03-04T00:38:56.281Z,43.03
2023-03-04T00:41:23.338Z,40.03
2023-03-04T00:43:50.925Z,34.90
2023-03-04T00:46:20.549Z,33.20
2023-03-04T00:48:47.936Z,30.42
2023-03-04T00:51:17.228Z,35.63
2023-03-04T00:53:44.589Z,31.55
2023-03-04T00:56:11.663Z,34.28
2023-03-04T00:58:39.079Z,35.13
2023-03-04T01:01:09.303Z,33.85
2023-03-04T01:03:36.910Z,37.92
2023-03-04T01:06:04.125Z,31.90
2023-03-04T01:08:31.536Z,33.30
2023-03-04T01:10:58.611Z,37.38
2023-03-04T01:13:28.440Z,36.40
2023-03-04T01:15:55.538Z,36.80
2023-03-04T01:18:25.548Z,41.33
2023-03-04T01:20:52.894Z,37.53
2023-03-04T01:23:20.306Z,40.90
2023-03-04T01:25:49.708Z,38.92
2023-03-04T01:28:17.085Z,44.53
2023-03-04T01:30:44.204Z,46.97
2023-03-04T01:33:11.543Z,42.00
2023-03-04T01:35:38.642Z,38.25
2023-03-04T01:38:06.299Z,44.83
2023-03-04T01:40:33.731Z,44.25
2023-03-04T01:43:01.148Z,42.55
2023-03-04T01:45:32.363Z,42.88
2023-03-04T01:47:59.755Z,46.00
2023-03-04T01:50:33.840Z,42.85
2023-03-04T01:53:02.512Z,45.55
2023-03-04T01:55:30.952Z,45.58
2023-03-04T01:58:00.644Z,39.15
2023-03-04T02:00:30.827Z,41.17
2023-03-04T02:03:10.847Z,42.03
2023-03-04T02:05:42.986Z,42.65
2023-03-04T02:08:11.547Z,41.95
2023-03-04T02:10:39.476Z,42.45
2023-03-04T02:13:07.174Z,45.25
2023-03-04T02:15:34.229Z,47.40
2023-03-04T02:18:02.184Z,48.15
2023-03-04T02:20:41.489Z,46.83
2023-03-04T02:23:30.530Z,48.05
2023-03-04T02:26:19.063Z,45.22
2023-03-04T02:28:53.433Z,48.83
2023-03-04T02:31:41.925Z,48.95
2023-03-04T02:34:18.220Z,49.67
2023-03-04T02:36:47.310Z,46.10
2023-03-04T02:39:20.358Z,49.67
2023-03-04T02:41:49.420Z,49.20
2023-03-04T02:44:30.896Z,50.50
2023-03-04T02:46:58.856Z,53.03
2023-03-04T02:49:28.989Z,47.78
2023-03-04T02:52:20.475Z,49.15
2023-03-04T02:54:50.287Z,49.30
2023-03-04T02:57:17.552Z,50.92
2023-03-04T02:59:47.223Z,50.92
2023-03-04T03:02:16.799Z,51.92
2023-03-04T03:04:44.394Z,51.28
2023-03-04T03:07:11.500Z,50.55
2023-03-04T03:09:41.162Z,49.90
2023-03-04T03:12:08.283Z,48.50
2023-03-04T03:14:35.648Z,50.20
2023-03-04T03:17:02.680Z,52.78
2023-03-04T03:19:29.993Z,54.53
2023-03-04T03:21:59.367Z,46.40
2023-03-04T03:24:28.952Z,42.17
2023-03-04T03:26:55.991Z,42.80
2023-03-04T03:29:25.813Z,42.20
2023-03-04T03:31:55.417Z,46.15
2023-03-04T03:34:23.414Z,43.15
2023-03-04T03:36:52.768Z,41.05
2023-03-04T03:39:20.143Z,39.03
2023-03-04T03:41:47.213Z,39.25
2023-03-04T03:44:14.528Z,38.45
2023-03-04T03:46:46.019Z,41.17
2023-03-04T03:49:13.423Z,40.50
2023-03-04T03:51:43.027Z,38.35
2023-03-04T03:54:10.383Z,36.60
2023-03-04T03:56:39.662Z,33.83
2023-03-04T03:59:07.186Z,41.17
2023-03-04T04:04:09.660Z,32.50
2023-03-04T04:06:37.253Z,36.53
2023-03-04T04:09:04.491Z,42.60
2023-03-04T04:11:31.831Z,35.20
2023-03-04T04:13:58.859Z,37.35
2023-03-04T04:16:26.283Z,40.30
2023-03-04T04:18:53.383Z,37.90
2023-03-04T04:21:25.591Z,29.40
2023-03-04T04:23:57.041Z,34.42
2023-03-04T04:26:24.442Z,35.67
2023-03-04T04:28:53.961Z,36.92
2023-03-04T04:31:25.770Z,34.78
2023-03-04T04:33:52.834Z,37.88
2023-03-04T04:36:22.453Z,31.92
2023-03-04T04:38:49.546Z,36.88
2023-03-04T04:41:23.807Z,36.50
2023-03-04T04:46:21.041Z,37.97
2023-03-04T04:48:48.155Z,41.42
2023-03-04T04:51:15.594Z,34.13
2023-03-04T04:53:42.755Z,42.88
2023-03-04T04:56:12.393Z,39.20
2023-03-04T04:58:39.878Z,37.65
2023-03-04T05:01:14.363Z,36.35
2023-03-04T05:03:42.299Z,36.88
2023-03-04T05:06:13.728Z,36.60
2023-03-04T05:08:40.904Z,38.55
2023-03-04T05:11:11.146Z,35.97
2023-03-04T05:13:38.248Z,39.85
2023-03-04T05:16:08.864Z,36.33
2023-03-04T05:18:36.313Z,36.40
2023-03-04T05:21:05.046Z,36.38
2023-03-04T05:23:35.502Z,40.50
2023-03-04T05:26:04.644Z,37.03
2023-03-04T05:28:34.894Z,38.72
2023-03-04T05:31:03.147Z,33.42
2023-03-04T05:33:30.280Z,36.83
2023-03-04T05:36:00.661Z,36.22
2023-03-04T05:38:30.246Z,37.80
2023-03-04T05:41:00.325Z,34.35
2023-03-04T05:43:28.593Z,35.33
2023-03-04T05:45:56.018Z,36.47
2023-03-04T05:48:23.538Z,32.20
2023-03-04T05:50:59.415Z,47.05
2023-03-04T05:53:27.083Z,34.90
2023-03-04T05:55:54.746Z,31.48
2023-03-04T05:58:22.011Z,31.55
2023-03-04T06:00:49.373Z,29.83
2023-03-04T06:03:18.877Z,27.52
2023-03-04T06:05:46.320Z,23.27
2023-03-04T06:08:14.319Z,24.65
2023-03-04T06:10:42.805Z,24.20
2023-03-04T06:13:10.729Z,23.42
2023-03-04T06:15:40.541Z,17.25
2023-03-04T06:18:08.196Z,19.80
2023-03-04T06:20:40.440Z,19.67
2023-03-04T06:23:07.539Z,18.00
2023-03-04T06:25:34.976Z,19.38
2023-03-04T06:28:01.991Z,19.80
2023-03-04T06:30:29.621Z,18.75
2023-03-04T06:32:56.844Z,20.50
2023-03-04T06:35:24.243Z,18.38
2023-03-04T06:37:53.587Z,19.98
2023-03-04T06:40:21.010Z,20.58
2023-03-04T06:42:48.081Z,18.80
2023-03-04T06:45:15.421Z,20.40
2023-03-04T06:47:42.544Z,22.85
2023-03-04T06:50:13.660Z,23.35
2023-03-04T06:52:41.104Z,24.08
2023-03-04T06:55:11.857Z,24.85
2023-03-04T06:57:39.452Z,21.98
2023-03-04T07:00:07.576Z,29.13
2023-03-04T07:02:34.677Z,24.38
2023-03-04T07:05:02.192Z,28.45
2023-03-04T07:07:33.677Z,27.63
2023-03-04T07:10:01.081Z,26.42
2023-03-04T07:12:30.380Z,27.10
2023-03-04T07:15:00.053Z,30.83
2023-03-04T07:17:27.198Z,24.58
2023-03-04T07:19:57.234Z,28.50
2023-03-04T07:22:26.619Z,24.45
2023-03-04T07:24:54.018Z,24.45
2023-03-04T07:27:21.105Z,28.52
2023-03-04T07:29:48.494Z,24.30
2023-03-04T07:32:15.710Z,30.95
2023-03-04T07:34:45.589Z,23.85
2023-03-04T07:37:12.657Z,25.85
2023-03-04T07:39:40.040Z,25.27
2023-03-04T07:42:07.220Z,29.23
2023-03-04T07:44:37.084Z,25.27
2023-03-04T07:47:04.200Z,28.33
2023-03-04T07:49:33.805Z,28.10
2023-03-04T07:52:06.388Z,26.83
2023-03-04T07:54:36.352Z,28.10
2023-03-04T07:57:05.807Z,22.33
2023-03-04T07:59:35.733Z,23.92
2023-03-04T08:02:05.297Z,19.65
2023-03-04T08:04:32.728Z,20.67
2023-03-04T08:06:59.770Z,20.98
2023-03-04T08:09:27.173Z,19.73
2023-03-04T08:11:54.224Z,23.33
2023-03-04T08:14:23.933Z,21.55
2023-03-04T08:16:51.063Z,21.05
2023-03-04T08:19:18.456Z,22.40
2023-03-04T08:21:48.045Z,19.48
2023-03-04T08:24:15.433Z,19.48
2023-03-04T08:26:46.308Z,16.33
2023-03-04T08:29:20.633Z,18.30
2023-03-04T08:31:49.505Z,18.30
2023-03-04T08:34:18.657Z,15.98
2023-03-04T08:36:45.846Z,18.55
2023-03-04T08:39:15.509Z,14.35
2023-03-04T08:41:43.018Z,12.48
2023-03-04T08:44:10.637Z,14.20
2023-03-04T08:46:43.653Z,12.88
2023-03-04T08:49:12.692Z,12.05
2023-03-04T08:51:39.803Z,11.25
2023-03-04T08:54:09.560Z,11.70
2023-03-04T08:56:36.904Z,13.52
2023-03-04T08:59:04.565Z,14.43
2023-03-04T09:01:33.915Z,14.07
2023-03-04T09:04:01.310Z,12.32
2023-03-04T09:06:30.688Z,12.20
2023-03-04T09:09:01.495Z,10.63
2023-03-04T09:11:31.247Z,13.80
2023-03-04T09:14:00.876Z,12.02
2023-03-04T09:16:30.561Z,13.98
2023-03-04T09:19:00.653Z,11.52
2023-03-04T09:21:27.762Z,10.35
2023-03-04T09:23:57.074Z,11.45
2023-03-04T09:26:26.892Z,12.18
2023-03-04T09:28:58.990Z,12.88
2023-03-04T09:31:29.647Z,12.40
2023-03-04T09:34:00.845Z,9.27
2023-03-04T09:36:28.264Z,10.25
2023-03-04T09:39:02.525Z,14.55
2023-03-04T09:41:50.674Z,13.40
2023-03-04T09:44:41.152Z,13.65
2023-03-04T09:47:14.570Z,13.75
2023-03-04T09:49:50.192Z,10.93
2023-03-04T09:52:49.446Z,12.35
2023-03-04T09:55:19.777Z,9.07
2023-03-04T09:57:57.555Z,9.20
2023-03-04T10:00:52.156Z,15.45
2023-03-04T10:03:24.701Z,9.45
2023-03-04T10:06:04.609Z,13.63
2023-03-04T10:08:50.214Z,11.30
2023-03-04T10:11:42.655Z,14.10
2023-03-04T10:14:21.711Z,11.10
2023-03-04T10:17:03.344Z,10.77
2023-03-04T10:19:36.499Z,9.38
2023-03-04T10:22:26.950Z,13.55
2023-03-04T10:24:59.229Z,10.32
2023-03-04T10:27:34.277Z,10.02
2023-03-04T10:30:01.417Z,9.13
2023-03-04T10:32:30.119Z,12.80
2023-03-04T10:34:57.366Z,8.73
2023-03-04T10:37:24.856Z,11.27
2023-03-04T10:39:52.049Z,9.32
2023-03-04T10:42:19.608Z,11.88
2023-03-04T10:45:02.581Z,8.27
2023-03-04T10:47:32.370Z,9.13
2023-03-04T10:50:05.902Z,8.52
2023-03-04T10:52:49.733Z,8.35
2023-03-04T10:55:19.850Z,9.30
2023-03-04T10:57:57.434Z,10.13
2023-03-04T11:00:34.254Z,8.07
2023-03-04T11:03:23.653Z,9.73
2023-03-04T11:05:52.175Z,6.72
2023-03-04T11:08:23.520Z,6.80
2023-03-04T11:10:51.082Z,4.65
2023-03-04T11:13:21.195Z,5.88
2023-03-04T11:16:03.493Z,8.40
2023-03-04T11:18:44.669Z,7.15
2023-03-04T11:21:21.734Z,6.13
2023-03-04T11:23:53.029Z,5.65
2023-03-04T11:26:24.101Z,6.93
2023-03-04T11:29:03.722Z,4.65
2023-03-04T11:31:52.007Z,5.47
2023-03-04T11:34:40.549Z,6.72
2023-03-04T11:37:13.788Z,7.38
2023-03-04T11:39:56.725Z,4.95
2023-03-04T11:42:29.549Z,6.82
2023-03-04T11:44:57.215Z,5.15
2023-03-04T11:47:30.057Z,8.90
2023-03-04T11:50:18.086Z,6.90
2023-03-04T11:53:13.930Z,5.13
2023-03-04T11:56:03.620Z,3.58
2023-03-04T11:59:09.653Z,5.47
2023-03-04T12:01:40.144Z,3.83
2023-03-04T12:04:14.839Z,4.85
2023-03-04T12:07:03.457Z,5.75
2023-03-04T12:09:58.413Z,5.70
2023-03-04T12:12:47.786Z,6.97
2023-03-04T12:15:30.043Z,6.28
2023-03-04T12:18:08.797Z,5.05
2023-03-04T12:20:51.123Z,5.28
2023-03-04T12:23:30.971Z,7.57
2023-03-04T12:26:05.218Z,7.55
2023-03-04T12:29:06.247Z,6.07
2023-03-04T12:31:50.847Z,8.30
2023-03-04T12:34:38.240Z,6.88
2023-03-04T12:37:35.621Z,7.40
2023-03-04T12:40:13.213Z,4.80
2023-03-04T12:43:00.644Z,5.40
2023-03-04T12:45:46.750Z,6.72
2023-03-04T12:48:22.447Z,5.25
2023-03-04T12:51:13.264Z,7.30
2023-03-04T12:54:08.506Z,6.72
2023-03-04T12:57:04.722Z,8.95
2023-03-04T12:59:42.049Z,7.47
2023-03-04T13:02:21.673Z,7.20
2023-03-04T13:05:05.048Z,7.28
2023-03-04T13:08:08.481Z,5.63
2023-03-04T13:10:35.720Z,6.03
2023-03-04T13:13:05.941Z,4.95
2023-03-04T13:15:36.868Z,6.50
2023-03-04T13:18:34.079Z,7.53
2023-03-04T13:21:23.569Z,6.88
2023-03-04T13:23:54.553Z,8.98
2023-03-04T13:26:34.118Z,6.95
2023-03-04T13:29:13.815Z,7.25
2023-03-04T13:32:10.395Z,7.03
2023-03-04T13:34:53.866Z,14.52
2023-03-04T13:37:27.259Z,7.77
2023-03-04T13:42:53.260Z,8.88
2023-03-04T13:45:37.213Z,7.65
2023-03-04T13:48:23.622Z,8.13
2023-03-04T13:50:53.442Z,7.45
2023-03-04T13:53:43.038Z,6.68
2023-03-04T13:56:38.855Z,8.35
2023-03-04T13:59:22.975Z,7.68
2023-03-04T14:01:57.554Z,8.70
2023-03-04T14:04:32.067Z,8.93
2023-03-04T14:07:28.666Z,9.57
2023-03-04T14:09:55.808Z,9.77
2023-03-04T14:12:32.686Z,8.60
2023-03-04T14:15:06.021Z,8.05
2023-03-04T14:17:36.396Z,8.43
2023-03-04T14:20:25.159Z,10.18
2023-03-04T14:22:56.215Z,18.45
2023-03-04T14:25:38.132Z,9.50
2023-03-04T14:28:19.413Z,9.18
2023-03-04T14:30:57.756Z,9.40
2023-03-04T14:33:30.348Z,8.40
2023-03-04T14:36:00.708Z,9.60
2023-03-04T14:38:39.852Z,8.73
2023-03-04T14:41:44.292Z,9.90
2023-03-04T14:47:10.135Z,9.00
2023-03-04T14:49:44.225Z,8.67
2023-03-04T14:52:49.346Z,9.48
2023-03-04T14:55:31.630Z,10.20
2023-03-04T14:58:07.714Z,11.57
2023-03-04T15:00:39.107Z,12.10
2023-03-04T15:03:28.603Z,13.52
2023-03-04T15:06:06.126Z,13.40
2023-03-04T15:08:37.867Z,9.57
2023-03-04T15:11:14.031Z,12.18
2023-03-04T15:13:45.549Z,11.40
2023-03-04T15:16:15.118Z,12.35
2023-03-04T15:19:01.022Z,9.75
2023-03-04T15:21:33.649Z,7.85
2023-03-04T15:24:01.586Z,12.07
2023-03-04T15:26:33.633Z,9.18
2023-03-04T15:29:00.730Z,9.23
2023-03-04T15:31:29.245Z,9.55
2023-03-04T15:33:58.826Z,11.75
2023-03-04T15:36:26.206Z,8.68
2023-03-04T15:38:53.876Z,9.70
2023-03-04T15:41:26.264Z,10.70
2023-03-04T15:43:55.601Z,14.63
2023-03-04T15:46:23.096Z,9.38
2023-03-04T15:48:52.640Z,9.65
2023-03-04T15:51:23.767Z,10.45
2023-03-04T15:53:53.526Z,11.55
2023-03-04T15:56:28.061Z,11.68
2023-03-04T15:59:04.450Z,12.43
2023-03-04T16:01:31.931Z,11.75
2023-03-04T16:03:59.271Z,16.65
2023-03-04T16:06:33.528Z,13.17
2023-03-04T16:09:05.687Z,14.40
2023-03-04T16:11:40.437Z,14.73
2023-03-04T16:14:12.002Z,11.50
2023-03-04T16:16:39.596Z,14.32
2023-03-04T16:19:07.162Z,14.30
2023-03-04T16:21:34.670Z,11.68
2023-03-04T16:24:01.984Z,13.52
2023-03-04T16:26:31.168Z,16.88
2023-03-04T16:29:04.267Z,13.85
2023-03-04T16:31:31.836Z,12.68
2023-03-04T16:33:59.064Z,13.98
2023-03-04T16:36:29.574Z,15.35
2023-03-04T16:38:59.106Z,14.05
2023-03-04T16:41:30.803Z,15.43
2023-03-04T16:44:03.634Z,17.83
2023-03-04T16:46:31.147Z,13.48
2023-03-04T16:48:58.461Z,12.90
2023-03-04T16:51:29.422Z,51.67
2023-03-04T16:53:58.788Z,21.20
2023-03-04T16:56:26.457Z,13.20
2023-03-04T16:58:55.979Z,12.85
2023-03-04T17:01:44.690Z,15.20
2023-03-04T17:04:14.374Z,13.90
2023-03-04T17:06:43.987Z,14.45
2023-03-04T17:09:11.494Z,16.00
2023-03-04T17:11:48.472Z,14.95
2023-03-04T17:14:16.937Z,15.65
2023-03-04T17:16:51.600Z,21.20
2023-03-04T17:19:28.728Z,21.50
2023-03-04T17:21:59.172Z,21.23
2023-03-04T17:24:30.512Z,18.80
2023-03-04T17:27:00.415Z,20.50
2023-03-04T17:29:30.080Z,19.55
2023-03-04T17:32:15.513Z,20.97
2023-03-04T17:34:42.708Z,25.10
2023-03-04T17:37:10.146Z,21.25
2023-03-04T17:39:40.343Z,19.10
2023-03-04T17:42:08.305Z,19.58
2023-03-04T17:44:37.877Z,20.65
2023-03-04T17:47:06.190Z,20.00
2023-03-04T17:49:33.581Z,21.92
2023-03-04T17:52:05.801Z,17.42
2023-03-04T17:54:35.228Z,16.63
2023-03-04T17:57:05.114Z,19.38
2023-03-04T17:59:34.830Z,16.27
2023-03-04T18:02:02.634Z,14.73
2023-03-04T18:04:29.826Z,22.23
2023-03-04T18:06:59.865Z,16.13
2023-03-04T18:09:27.044Z,15.13
2023-03-04T18:11:54.784Z,16.63
2023-03-04T18:14:24.189Z,15.10
2023-03-04T18:16:52.709Z,18.00
2023-03-04T18:19:22.076Z,17.88
2023-03-04T18:21:49.589Z,16.58
2023-03-04T18:24:16.757Z,18.50
2023-03-04T18:26:50.669Z,16.45
2023-03-04T18:29:20.949Z,25.73
2023-03-04T18:31:53.350Z,17.17
2023-03-04T18:34:20.448Z,16.80
2023-03-04T18:36:47.830Z,18.63
2023-03-04T18:39:14.939Z,19.80
2023-03-04T18:41:42.549Z,15.88
2023-03-04T18:44:09.616Z,24.02
2023-03-04T18:46:47.186Z,16.73
2023-03-04T18:49:15.457Z,19.88
2023-03-04T18:51:45.484Z,19.55
2023-03-04T18:54:12.746Z,16.50
2023-03-04T18:56:42.006Z,22.80
2023-03-04T18:59:14.630Z,19.27
2023-03-04T19:01:44.477Z,23.20
2023-03-04T19:04:13.022Z,22.70
2023-03-04T19:06:42.864Z,18.92
2023-03-04T19:09:12.689Z,22.35
2023-03-04T19:11:40.027Z,16.27
2023-03-04T19:14:09.432Z,21.35
2023-03-04T19:16:38.161Z,21.25
2023-03-04T19:19:07.821Z,17.45
2023-03-04T19:21:41.268Z,20.55
2023-03-04T19:24:08.476Z,20.10
2023-03-04T19:26:36.130Z,15.63
2023-03-04T19:29:03.692Z,21.45
2023-03-04T19:31:31.117Z,20.60
2023-03-04T19:33:58.438Z,22.10
2023-03-04T19:36:25.908Z,22.92
2023-03-04T19:38:53.165Z,20.58
2023-03-04T19:41:20.626Z,23.15
2023-03-04T19:43:51.097Z,20.65
2023-03-04T19:46:18.708Z,20.92
2023-03-04T19:48:45.726Z,18.73
2023-03-04T19:51:17.169Z,16.60
2023-03-04T19:53:44.561Z,23.85
2023-03-04T19:56:12.250Z,20.73
2023-03-04T19:58:41.557Z,25.90
2023-03-04T20:01:24.253Z,20.83
2023-03-04T20:03:56.936Z,21.77
2023-03-04T20:06:27.135Z,23.77
2023-03-04T20:08:59.440Z,20.98
2023-03-04T20:11:30.585Z,29.33
2023-03-04T20:14:01.421Z,22.00
2023-03-04T20:16:32.070Z,24.45
2023-03-04T20:18:59.902Z,29.15
2023-03-04T20:21:29.846Z,23.73
2023-03-04T20:23:59.083Z,25.98
2023-03-04T20:26:29.766Z,20.23
2023-03-04T20:29:01.870Z,27.00
2023-03-04T20:31:36.303Z,23.77
2023-03-04T20:34:03.424Z,16.65
2023-03-04T20:36:31.346Z,22.38
2023-03-04T20:39:10.296Z,23.58
2023-03-04T20:41:48.206Z,17.25
2023-03-04T20:44:15.284Z,19.83
2023-03-04T20:46:44.481Z,19.48
2023-03-04T20:49:19.545Z,17.33
2023-03-04T20:51:53.480Z,19.15
2023-03-04T20:54:20.928Z,21.80
2023-03-04T20:56:50.658Z,21.52
2023-03-04T20:59:18.203Z,20.80
2023-03-04T21:01:47.001Z,19.23
2023-03-04T21:04:14.371Z,22.58
2023-03-04T21:06:41.784Z,23.90
2023-03-04T21:09:14.969Z,21.00
2023-03-04T21:11:47.870Z,20.08
2023-03-04T21:14:28.157Z,18.48
2023-03-04T21:16:59.895Z,22.98
2023-03-04T21:19:35.147Z,21.83
2023-03-04T21:22:03.664Z,21.88
2023-03-04T21:24:39.622Z,21.35
2023-03-04T21:27:08.294Z,21.52
2023-03-04T21:29:37.457Z,18.85
2023-03-04T21:32:23.370Z,19.80
2023-03-04T21:34:52.757Z,22.10
2023-03-04T21:37:24.299Z,16.80
2023-03-04T21:39:54.947Z,19.15
2023-03-04T21:42:22.745Z,20.00
2023-03-04T21:44:52.332Z,48.13
2023-03-04T21:47:20.983Z,28.58
2023-03-04T21:49:48.184Z,21.58
2023-03-04T21:52:17.034Z,20.00
2023-03-04T21:54:46.567Z,19.10
2023-03-04T21:57:15.775Z,16.83
2023-03-04T21:59:46.031Z,17.08
2023-03-04T22:02:21.034Z,17.08
2023-03-04T22:04:50.677Z,21.27
2023-03-04T22:07:18.213Z,21.02
2023-03-04T22:09:47.808Z,15.27
2023-03-04T22:12:19.129Z,16.40
2023-03-04T22:14:46.902Z,15.80
2023-03-04T22:17:14.610Z,18.13
2023-03-04T22:19:41.889Z,18.48
2023-03-04T22:22:09.325Z,15.65
2023-03-04T22:24:36.606Z,20.33
2023-03-04T22:27:04.235Z,17.30
2023-03-04T22:29:33.603Z,22.40
2023-03-04T22:32:01.105Z,21.45
2023-03-04T22:34:28.277Z,18.15
2023-03-04T22:37:16.818Z,18.33
2023-03-04T22:39:46.318Z,19.85
2023-03-04T22:42:13.702Z,20.15
2023-03-04T22:44:40.739Z,18.95
2023-03-04T22:47:08.349Z,15.85
2023-03-04T22:49:39.655Z,17.92
2023-03-04T22:52:09.540Z,14.20
2023-03-04T22:54:38.806Z,16.77
2023-03-04T22:57:06.388Z,28.17
2023-03-04T22:59:33.466Z,29.05
2023-03-04T23:02:00.832Z,26.23
2023-03-04T23:04:30.446Z,17.40
2023-03-04T23:06:57.851Z,19.90
2023-03-04T23:09:24.953Z,20.90
2023-03-04T23:11:54.613Z,18.67
2023-03-04T23:14:24.190Z,15.63
2023-03-04T23:16:51.626Z,21.13
2023-03-04T23:19:18.706Z,20.30
2023-03-04T23:21:46.119Z,23.98
2023-03-04T23:24:14.093Z,17.08
2023-03-04T23:26:43.239Z,19.65
2023-03-04T23:29:15.548Z,16.65
2023-03-04T23:31:45.450Z,19.75
2023-03-04T23:34:13.558Z,18.73
2023-03-04T23:36:43.781Z,21.38
2023-03-04T23:39:12.334Z,19.88
2023-03-04T23:41:42.084Z,19.98
2023-03-04T23:44:11.665Z,23.95
2023-03-04T23:46:40.024Z,19.50
2023-03-04T23:49:11.439Z,19.75
2023-03-04T23:51:41.348Z,18.40
2023-03-04T23:54:08.861Z,20.17
2023-03-04T23:56:36.263Z,20.17
2023-03-04T23:59:03.307Z,20.42
